Time;durP1;ratioP1;P1;durP2;ratioP2;P2;SDS_P1;SDS_P2;PMS_P1;PMS_P2;Temp;Humidity;BMP_temperature;BMP_pressure;BME280_temperature;BME280_humidity;BME280_pressure;Samples;Min_cycle;Max_cycle;Signal;HPM_P1;HPM_P2
2023/10/19 00:01:09;;;;;;;11.30;9.52;;;;;;;;;;5039882;28;20032;-79
2023/10/19 00:03:35;;;;;;;12.90;10.02;;;;;;;;;;5058846;28;20024;-79
2023/10/19 00:06:00;;;;;;;13.48;10.07;;;;;;;;;;5063261;28;20039;-79
2023/10/19 00:08:36;;;;;;;14.32;10.05;;;;;;;;;;5046835;28;20052;-79
2023/10/19 00:11:08;;;;;;;12.52;9.85;;;;;;;;;;5044107;28;20056;-78
2023/10/19 00:13:40;;;;;;;12.77;9.63;;;;;;;;;;5041229;28;20020;-78
2023/10/19 00:16:22;;;;;;;15.52;10.00;;;;;;;;;;5052228;28;20024;-76
2023/10/19 00:18:48;;;;;;;13.20;9.80;;;;;;;;;;5062902;28;20389;-77
2023/10/19 00:21:23;;;;;;;15.85;10.70;;;;;;;;;;5052430;28;20059;-76
2023/10/19 00:23:57;;;;;;;12.70;9.07;;;;;;;;;;5045805;28;20025;-78
2023/10/19 00:26:26;;;;;;;13.27;9.27;;;;;;;;;;5066036;28;20029;-77
2023/10/19 00:28:55;;;;;;;13.00;9.55;;;;;;;;;;5065465;28;20031;-78
2023/10/19 00:31:22;;;;;;;11.60;9.13;;;;;;;;;;5069369;28;20492;-77
2023/10/19 00:33:51;;;;;;;11.55;9.43;;;;;;;;;;5048465;28;20032;-77
2023/10/19 00:36:20;;;;;;;15.13;9.30;;;;;;;;;;5053728;28;20086;-76
2023/10/19 00:41:20;;;;;;;15.02;9.20;;;;;;;;;;5067756;28;20092;-79
2023/10/19 00:43:48;;;;;;;12.13;8.75;;;;;;;;;;5049353;28;20479;-78
2023/10/19 00:48:59;;;;;;;11.00;8.48;;;;;;;;;;5062419;28;20118;-78
2023/10/19 00:54:21;;;;;;;11.50;8.73;;;;;;;;;;5057951;28;20024;-82
2023/10/19 00:56:48;;;;;;;12.80;9.07;;;;;;;;;;5056841;28;20652;-81
2023/10/19 00:59:24;;;;;;;11.60;8.60;;;;;;;;;;5056717;28;20046;-81
2023/10/19 01:01:53;;;;;;;11.35;8.18;;;;;;;;;;5056194;28;20130;-83
2023/10/19 01:04:30;;;;;;;12.10;8.52;;;;;;;;;;5036932;28;20550;-82
2023/10/19 01:07:07;;;;;;;11.48;7.82;;;;;;;;;;5055960;28;20016;-81
2023/10/19 01:09:38;;;;;;;11.40;8.35;;;;;;;;;;5058762;28;20365;-82
2023/10/19 01:12:25;;;;;;;11.48;8.40;;;;;;;;;;5042949;28;20031;-82
2023/10/19 01:15:18;;;;;;;12.43;8.27;;;;;;;;;;5057593;28;20073;-80
2023/10/19 01:17:54;;;;;;;12.07;7.90;;;;;;;;;;5066072;28;20048;-82
2023/10/19 01:20:22;;;;;;;11.57;8.20;;;;;;;;;;5064047;28;20519;-83
2023/10/19 01:22:53;;;;;;;9.00;7.20;;;;;;;;;;5060778;28;20115;-82
2023/10/19 01:25:19;;;;;;;11.15;7.97;;;;;;;;;;5061193;28;20020;-81
2023/10/19 01:27:44;;;;;;;12.13;8.43;;;;;;;;;;5072132;28;20491;-82
2023/10/19 01:30:10;;;;;;;11.20;8.05;;;;;;;;;;5063986;28;20024;-83
2023/10/19 01:32:36;;;;;;;10.60;7.80;;;;;;;;;;5059429;28;20077;-83
2023/10/19 01:35:01;;;;;;;9.80;7.78;;;;;;;;;;5064661;28;20480;-83
2023/10/19 01:37:26;;;;;;;10.73;7.63;;;;;;;;;;5052205;28;20115;-83
2023/10/19 01:39:52;;;;;;;11.35;7.40;;;;;;;;;;5061189;28;20386;-83
2023/10/19 01:42:17;;;;;;;10.43;7.30;;;;;;;;;;5047294;28;20056;-83
2023/10/19 01:44:43;;;;;;;11.07;6.82;;;;;;;;;;5069651;28;20115;-83
2023/10/19 01:47:08;;;;;;;10.35;7.57;;;;;;;;;;5044511;28;20096;-83
2023/10/19 01:49:33;;;;;;;10.40;7.45;;;;;;;;;;5064518;28;20020;-80
2023/10/19 01:52:00;;;;;;;9.75;7.43;;;;;;;;;;5044765;28;20029;-83
2023/10/19 01:54:25;;;;;;;10.30;7.22;;;;;;;;;;5044545;28;20078;-82
2023/10/19 01:56:54;;;;;;;9.80;6.82;;;;;;;;;;5067085;28;20024;-83
2023/10/19 01:59:22;;;;;;;12.13;7.55;;;;;;;;;;5047517;28;20032;-83
2023/10/19 02:01:49;;;;;;;10.93;6.85;;;;;;;;;;5039504;28;20486;-79
2023/10/19 02:04:14;;;;;;;9.38;6.97;;;;;;;;;;5043859;28;20063;-79
2023/10/19 02:06:40;;;;;;;9.93;7.25;;;;;;;;;;5058968;28;20063;-79
2023/10/19 02:09:25;;;;;;;9.40;6.95;;;;;;;;;;5061799;28;20435;-79
2023/10/19 02:11:55;;;;;;;10.38;6.65;;;;;;;;;;5065635;28;20404;-79
2023/10/19 02:14:21;;;;;;;12.40;7.53;;;;;;;;;;5047225;28;20063;-79
2023/10/19 02:16:52;;;;;;;10.60;7.03;;;;;;;;;;5045852;28;20040;-79
2023/10/19 02:19:17;;;;;;;10.68;6.97;;;;;;;;;;5066764;28;20060;-79
2023/10/19 02:21:47;;;;;;;11.40;7.03;;;;;;;;;;5067403;28;20487;-79
2023/10/19 02:24:14;;;;;;;10.38;6.80;;;;;;;;;;5060017;28;20515;-79
2023/10/19 02:26:40;;;;;;;8.05;6.22;;;;;;;;;;5043327;28;20477;-79
2023/10/19 02:29:07;;;;;;;10.38;6.63;;;;;;;;;;5061593;28;20064;-79
2023/10/19 02:31:34;;;;;;;9.18;6.40;;;;;;;;;;5044742;28;20028;-79
2023/10/19 02:34:00;;;;;;;8.32;6.15;;;;;;;;;;5040717;28;20081;-79
2023/10/19 02:36:30;;;;;;;10.52;6.10;;;;;;;;;;5048175;28;20028;-79
2023/10/19 02:39:00;;;;;;;9.88;6.15;;;;;;;;;;5064011;28;20020;-79
2023/10/19 02:41:29;;;;;;;9.38;6.13;;;;;;;;;;5050551;28;20480;-83
2023/10/19 02:44:09;;;;;;;8.35;6.07;;;;;;;;;;5064272;28;20100;-83
2023/10/19 02:46:34;;;;;;;10.55;5.80;;;;;;;;;;5047536;28;20048;-81
2023/10/19 02:49:13;;;;;;;8.55;5.65;;;;;;;;;;5062222;28;20052;-83
2023/10/19 02:51:58;;;;;;;8.60;5.53;;;;;;;;;;5062549;28;20032;-84
2023/10/19 02:54:24;;;;;;;7.85;4.85;;;;;;;;;;5043015;28;20108;-81
2023/10/19 02:56:56;;;;;;;6.30;4.10;;;;;;;;;;5039194;28;20025;-83
2023/10/19 02:59:23;;;;;;;8.82;3.33;;;;;;;;;;5061174;28;20020;-83
2023/10/19 03:04:36;;;;;;;5.55;3.30;;;;;;;;;;5060997;28;20047;-81
2023/10/19 03:07:07;;;;;;;6.30;2.88;;;;;;;;;;5058389;28;20032;-79
2023/10/19 03:09:36;;;;;;;8.18;3.17;;;;;;;;;;5057429;28;20066;-82
2023/10/19 03:12:05;;;;;;;6.75;3.08;;;;;;;;;;5058588;28;22094;-83
2023/10/19 03:14:33;;;;;;;4.97;2.60;;;;;;;;;;5042937;28;20059;-81
2023/10/19 03:17:04;;;;;;;5.63;2.58;;;;;;;;;;5058135;28;20050;-83
2023/10/19 03:19:29;;;;;;;5.07;2.22;;;;;;;;;;5044951;28;20033;-83
2023/10/19 03:21:55;;;;;;;5.60;2.30;;;;;;;;;;5064458;28;20032;-84
2023/10/19 03:24:23;;;;;;;4.90;1.90;;;;;;;;;;5043591;28;20032;-82
2023/10/19 03:26:49;;;;;;;4.50;1.92;;;;;;;;;;5039513;28;20060;-84
2023/10/19 03:29:31;;;;;;;4.50;1.70;;;;;;;;;;5061695;28;20035;-83
2023/10/19 03:31:58;;;;;;;4.22;1.65;;;;;;;;;;5044954;28;20041;-80
2023/10/19 03:34:24;;;;;;;3.55;1.58;;;;;;;;;;5060181;28;21651;-80
2023/10/19 03:36:50;;;;;;;6.45;1.85;;;;;;;;;;5050282;28;20047;-80
2023/10/19 03:39:17;;;;;;;4.60;1.35;;;;;;;;;;5059037;28;20028;-80
2023/10/19 03:41:44;;;;;;;7.05;2.00;;;;;;;;;;5060431;28;20032;-80
2023/10/19 03:44:24;;;;;;;5.95;1.52;;;;;;;;;;5046598;28;20035;-80
2023/10/19 03:46:53;;;;;;;6.13;1.73;;;;;;;;;;5045863;28;20028;-80
2023/10/19 03:49:21;;;;;;;5.90;1.90;;;;;;;;;;5065655;28;20024;-80
2023/10/19 03:54:32;;;;;;;4.97;1.55;;;;;;;;;;5061030;28;20098;-80
2023/10/19 03:57:02;;;;;;;6.35;1.90;;;;;;;;;;5057357;28;20087;-80
2023/10/19 03:59:33;;;;;;;3.80;1.40;;;;;;;;;;5042786;28;20032;-80
2023/10/19 04:02:00;;;;;;;4.75;1.83;;;;;;;;;;5044640;28;20103;-81
2023/10/19 04:04:26;;;;;;;5.85;1.83;;;;;;;;;;5059684;28;20025;-80
2023/10/19 04:06:57;;;;;;;6.55;1.90;;;;;;;;;;5060292;28;20048;-77
2023/10/19 04:09:28;;;;;;;4.72;1.42;;;;;;;;;;5039828;28;20068;-77
2023/10/19 04:11:56;;;;;;;5.90;1.80;;;;;;;;;;5037824;28;20029;-79
2023/10/19 04:14:21;;;;;;;4.68;1.73;;;;;;;;;;5062605;28;20024;-78
2023/10/19 04:16:48;;;;;;;3.03;1.55;;;;;;;;;;5041705;28;20028;-77
2023/10/19 04:19:14;;;;;;;3.88;1.70;;;;;;;;;;5048060;28;20059;-77
2023/10/19 04:21:43;;;;;;;3.45;1.70;;;;;;;;;;5044284;28;20124;-77
2023/10/19 04:24:10;;;;;;;7.40;1.90;;;;;;;;;;5049404;28;20109;-79
2023/10/19 04:26:39;;;;;;;4.25;1.50;;;;;;;;;;5065923;28;20480;-78
2023/10/19 04:29:11;;;;;;;4.05;1.48;;;;;;;;;;5047162;28;20024;-77
2023/10/19 04:31:49;;;;;;;5.55;1.35;;;;;;;;;;5045253;28;20033;-84
2023/10/19 04:34:21;;;;;;;9.98;3.88;;;;;;;;;;5065991;28;20149;-84
2023/10/19 04:36:47;;;;;;;5.70;1.50;;;;;;;;;;5063912;28;20021;-83
2023/10/19 04:39:13;;;;;;;5.53;1.45;;;;;;;;;;5049715;28;20021;-84
2023/10/19 04:41:41;;;;;;;4.50;1.60;;;;;;;;;;5067613;28;20028;-84
2023/10/19 04:44:10;;;;;;;3.63;1.20;;;;;;;;;;5048655;28;20138;-84
2023/10/19 04:46:36;;;;;;;3.50;1.48;;;;;;;;;;5046292;28;20155;-81
2023/10/19 04:49:03;;;;;;;6.05;2.30;;;;;;;;;;5050053;28;20115;-80
2023/10/19 04:51:29;;;;;;;4.50;1.48;;;;;;;;;;5064442;28;20017;-80
2023/10/19 04:53:55;;;;;;;3.92;1.70;;;;;;;;;;5050421;28;20020;-83
2023/10/19 04:56:20;;;;;;;6.93;1.60;;;;;;;;;;5068821;28;20098;-84
2023/10/19 04:58:47;;;;;;;4.55;1.75;;;;;;;;;;5046620;28;20070;-84
2023/10/19 05:01:12;;;;;;;5.03;1.90;;;;;;;;;;5063936;28;20123;-84
2023/10/19 05:03:38;;;;;;;3.22;1.70;;;;;;;;;;5071754;28;20119;-80
2023/10/19 05:06:04;;;;;;;4.63;1.77;;;;;;;;;;5066531;28;20106;-80
2023/10/19 05:08:29;;;;;;;4.22;1.83;;;;;;;;;;5049178;28;20078;-79
2023/10/19 05:10:56;;;;;;;4.43;1.98;;;;;;;;;;5051462;28;20111;-79
2023/10/19 05:13:25;;;;;;;3.53;2.08;;;;;;;;;;5065397;28;20024;-80
2023/10/19 05:15:52;;;;;;;6.07;2.38;;;;;;;;;;5043390;28;20024;-79
2023/10/19 05:18:18;;;;;;;4.85;2.58;;;;;;;;;;5060251;28;20036;-79
2023/10/19 05:20:43;;;;;;;5.38;2.40;;;;;;;;;;5062425;28;20525;-79
2023/10/19 05:23:09;;;;;;;4.38;2.67;;;;;;;;;;5048146;28;20107;-79
2023/10/19 05:25:37;;;;;;;4.90;2.65;;;;;;;;;;5062298;28;20365;-79
2023/10/19 05:28:05;;;;;;;4.82;2.67;;;;;;;;;;5049894;28;20035;-79
2023/10/19 05:30:31;;;;;;;6.28;2.97;;;;;;;;;;5044105;28;20028;-79
2023/10/19 05:32:57;;;;;;;6.40;2.75;;;;;;;;;;5061953;28;20029;-79
2023/10/19 05:35:26;;;;;;;5.95;2.95;;;;;;;;;;5044599;28;20028;-79
2023/10/19 05:37:56;;;;;;;9.98;3.00;;;;;;;;;;5041003;28;20153;-80
2023/10/19 05:40:23;;;;;;;6.35;2.88;;;;;;;;;;5041550;28;22154;-78
2023/10/19 05:42:49;;;;;;;5.47;2.72;;;;;;;;;;5044702;28;20088;-84
2023/10/19 05:45:16;;;;;;;6.20;2.88;;;;;;;;;;5045051;28;20404;-83
2023/10/19 05:47:43;;;;;;;5.57;2.95;;;;;;;;;;5046048;28;20113;-84
2023/10/19 05:50:09;;;;;;;6.72;3.15;;;;;;;;;;5045295;28;20052;-84
2023/10/19 05:52:36;;;;;;;6.32;2.70;;;;;;;;;;5060969;28;20068;-84
2023/10/19 05:55:01;;;;;;;7.35;2.55;;;;;;;;;;5047439;28;20028;-84
2023/10/19 05:57:26;;;;;;;5.82;2.70;;;;;;;;;;5048191;28;20450;-84
2023/10/19 05:59:52;;;;;;;6.28;2.60;;;;;;;;;;5044414;28;20476;-83
2023/10/19 06:02:17;;;;;;;7.97;2.50;;;;;;;;;;5046008;28;20087;-84
2023/10/19 06:04:43;;;;;;;4.97;2.20;;;;;;;;;;5060898;28;20085;-84
2023/10/19 06:07:08;;;;;;;5.60;2.05;;;;;;;;;;5044488;28;20031;-84
2023/10/19 06:09:35;;;;;;;4.90;2.40;;;;;;;;;;5065045;28;20058;-84
2023/10/19 06:12:01;;;;;;;6.30;2.08;;;;;;;;;;5044073;28;20036;-79
2023/10/19 06:14:27;;;;;;;10.65;2.15;;;;;;;;;;5061289;28;20082;-78
2023/10/19 06:16:53;;;;;;;4.65;1.85;;;;;;;;;;5049713;28;20174;-78
2023/10/19 06:19:19;;;;;;;7.03;2.05;;;;;;;;;;5063855;28;20033;-77
2023/10/19 06:21:44;;;;;;;5.32;1.70;;;;;;;;;;5046829;28;20035;-76
2023/10/19 06:24:14;;;;;;;7.57;1.70;;;;;;;;;;5045133;28;20119;-77
2023/10/19 06:26:39;;;;;;;6.30;1.50;;;;;;;;;;5069934;28;20387;-77
2023/10/19 06:29:04;;;;;;;7.03;1.67;;;;;;;;;;5064354;28;20033;-77
2023/10/19 06:31:30;;;;;;;6.03;1.50;;;;;;;;;;5061016;28;20016;-77
2023/10/19 06:33:57;;;;;;;6.18;1.90;;;;;;;;;;5060325;28;20032;-78
2023/10/19 06:36:22;;;;;;;7.38;2.20;;;;;;;;;;5064360;28;20039;-77
2023/10/19 06:38:50;;;;;;;5.78;1.58;;;;;;;;;;5061066;28;20020;-80
2023/10/19 06:41:18;;;;;;;5.78;2.00;;;;;;;;;;5065958;28;20020;-81
2023/10/19 06:43:44;;;;;;;8.38;1.60;;;;;;;;;;5043768;28;20040;-80
2023/10/19 06:46:11;;;;;;;5.50;1.48;;;;;;;;;;5050116;28;20040;-81
2023/10/19 06:48:37;;;;;;;5.53;1.83;;;;;;;;;;5033552;28;20058;-80
2023/10/19 06:51:02;;;;;;;6.65;2.13;;;;;;;;;;5056938;28;20029;-80
2023/10/19 06:53:28;;;;;;;8.93;1.88;;;;;;;;;;5064341;28;20032;-77
2023/10/19 06:55:54;;;;;;;5.25;1.73;;;;;;;;;;5063478;28;20069;-77
2023/10/19 06:58:20;;;;;;;6.95;1.73;;;;;;;;;;5046790;28;20093;-77
2023/10/19 07:00:55;;;;;;;8.23;1.67;;;;;;;;;;5053386;28;20044;-78
2023/10/19 07:03:21;;;;;;;5.88;1.48;;;;;;;;;;5039712;28;20052;-80
2023/10/19 07:05:46;;;;;;;7.22;1.92;;;;;;;;;;5043063;28;20052;-77
2023/10/19 07:08:11;;;;;;;7.30;1.55;;;;;;;;;;5062823;28;20032;-83
2023/10/19 07:10:37;;;;;;;7.00;1.75;;;;;;;;;;5047296;28;20012;-84
2023/10/19 07:13:03;;;;;;;7.40;1.70;;;;;;;;;;5062364;28;20044;-83
2023/10/19 07:15:29;;;;;;;7.65;1.75;;;;;;;;;;5044340;28;20098;-84
2023/10/19 07:17:55;;;;;;;6.05;1.90;;;;;;;;;;5049081;28;20040;-85
2023/10/19 07:20:35;;;;;;;6.53;1.63;;;;;;;;;;5062530;28;20035;-85
2023/10/19 07:23:09;;;;;;;7.20;2.13;;;;;;;;;;5049302;28;20469;-85
2023/10/19 07:25:43;;;;;;;4.20;1.75;;;;;;;;;;5045541;28;20429;-85
2023/10/19 07:28:09;;;;;;;6.80;1.80;;;;;;;;;;5043071;28;20025;-85
2023/10/19 07:30:35;;;;;;;8.10;1.88;;;;;;;;;;5067457;28;20023;-85
2023/10/19 07:33:00;;;;;;;6.85;1.85;;;;;;;;;;5070006;28;20469;-85
2023/10/19 07:35:26;;;;;;;7.35;1.70;;;;;;;;;;5056941;28;21195;-85
2023/10/19 07:37:53;;;;;;;8.38;2.00;;;;;;;;;;5050920;28;20032;-85
2023/10/19 07:40:19;;;;;;;5.85;2.00;;;;;;;;;;5043920;28;20048;-81
2023/10/19 07:42:46;;;;;;;9.00;2.00;;;;;;;;;;5065053;28;20091;-86
2023/10/19 07:45:12;;;;;;;7.78;2.05;;;;;;;;;;5025787;28;20036;-84
2023/10/19 07:47:41;;;;;;;12.35;2.20;;;;;;;;;;5054703;28;20047;-85
2023/10/19 07:50:16;;;;;;;6.85;2.08;;;;;;;;;;5051401;28;20017;-85
2023/10/19 07:52:48;;;;;;;8.43;1.80;;;;;;;;;;5040997;28;20484;-85
2023/10/19 07:55:14;;;;;;;5.75;2.00;;;;;;;;;;5055899;28;20189;-83
2023/10/19 07:57:40;;;;;;;9.65;2.72;;;;;;;;;;5038605;28;20798;-84
2023/10/19 08:00:09;;;;;;;8.60;2.20;;;;;;;;;;5045174;28;20641;-83
2023/10/19 08:02:36;;;;;;;6.65;2.33;;;;;;;;;;5057849;28;20425;-86
2023/10/19 08:05:03;;;;;;;8.70;2.40;;;;;;;;;;5044860;28;20036;-85
2023/10/19 08:07:28;;;;;;;9.05;2.58;;;;;;;;;;5046994;28;20048;-84
2023/10/19 08:09:54;;;;;;;9.88;3.40;;;;;;;;;;5040011;28;20025;-86
2023/10/19 08:12:22;;;;;;;10.30;3.22;;;;;;;;;;5040634;28;22093;-85
2023/10/19 08:14:48;;;;;;;6.70;3.10;;;;;;;;;;5059806;28;20025;-83
2023/10/19 08:17:14;;;;;;;8.43;3.45;;;;;;;;;;5057928;28;20035;-85
2023/10/19 08:19:40;;;;;;;9.98;3.40;;;;;;;;;;5058241;28;20032;-85
2023/10/19 08:22:05;;;;;;;7.55;3.40;;;;;;;;;;5037540;28;20564;-82
2023/10/19 08:24:34;;;;;;;9.25;3.40;;;;;;;;;;5038004;28;20039;-83
2023/10/19 08:27:00;;;;;;;6.18;3.38;;;;;;;;;;5038346;28;20036;-85
2023/10/19 08:29:26;;;;;;;10.18;3.72;;;;;;;;;;5060675;28;21747;-85
2023/10/19 08:31:51;;;;;;;11.07;4.07;;;;;;;;;;5041005;28;20380;-84
2023/10/19 08:34:17;;;;;;;10.32;4.18;;;;;;;;;;5044226;28;20455;-84
2023/10/19 08:36:42;;;;;;;7.75;3.85;;;;;;;;;;5047395;28;20086;-85
2023/10/19 08:39:11;;;;;;;10.77;4.03;;;;;;;;;;5046837;28;20472;-86
2023/10/19 08:41:39;;;;;;;8.30;3.58;;;;;;;;;;5040892;28;20485;-83
2023/10/19 08:44:11;;;;;;;9.77;4.00;;;;;;;;;;5061704;28;20464;-85
2023/10/19 08:46:45;;;;;;;11.00;3.63;;;;;;;;;;5059899;28;20055;-80
2023/10/19 08:49:12;;;;;;;9.60;3.42;;;;;;;;;;5064554;28;20068;-80
2023/10/19 08:51:38;;;;;;;11.85;4.28;;;;;;;;;;5042874;28;20071;-81
2023/10/19 08:54:05;;;;;;;9.30;3.30;;;;;;;;;;5056318;28;20028;-80
2023/10/19 08:56:31;;;;;;;7.22;2.80;;;;;;;;;;5058781;28;20020;-81
2023/10/19 08:58:56;;;;;;;9.13;3.10;;;;;;;;;;5042907;28;20031;-81
2023/10/19 09:01:23;;;;;;;11.30;3.63;;;;;;;;;;5042450;28;20039;-81
2023/10/19 09:03:50;;;;;;;9.10;3.38;;;;;;;;;;5040647;28;20021;-85
2023/10/19 09:06:15;;;;;;;10.73;3.80;;;;;;;;;;5060216;28;20033;-85
2023/10/19 09:08:41;;;;;;;9.15;3.95;;;;;;;;;;5041895;28;20040;-82
2023/10/19 09:11:13;;;;;;;7.07;3.65;;;;;;;;;;5034541;28;20071;-79
2023/10/19 09:13:46;;;;;;;8.67;3.70;;;;;;;;;;5038115;28;20040;-84
2023/10/19 09:16:17;;;;;;;12.55;4.60;;;;;;;;;;5054650;28;20818;-84
2023/10/19 09:18:43;;;;;;;8.30;4.10;;;;;;;;;;5043310;28;20024;-83
2023/10/19 09:21:25;;;;;;;10.95;4.07;;;;;;;;;;5045167;28;20468;-79
2023/10/19 09:23:57;;;;;;;10.13;4.40;;;;;;;;;;5058272;28;20377;-80
2023/10/19 09:26:24;;;;;;;13.65;4.88;;;;;;;;;;5057005;28;20031;-80
2023/10/19 09:28:53;;;;;;;21.60;4.72;;;;;;;;;;5059705;28;20029;-78
2023/10/19 09:31:21;;;;;;;10.52;3.47;;;;;;;;;;5040791;28;20103;-77
2023/10/19 09:33:48;;;;;;;15.60;4.25;;;;;;;;;;5054245;28;20028;-79
2023/10/19 09:36:14;;;;;;;8.82;3.00;;;;;;;;;;5036974;28;20033;-79
2023/10/19 09:38:51;;;;;;;10.90;3.20;;;;;;;;;;5041170;28;20035;-78
2023/10/19 09:41:30;;;;;;;7.70;2.47;;;;;;;;;;5055409;28;20029;-78
2023/10/19 09:44:04;;;;;;;9.77;2.80;;;;;;;;;;5034999;28;20095;-81
2023/10/19 09:46:32;;;;;;;10.80;2.72;;;;;;;;;;5037611;28;20106;-78
2023/10/19 09:48:58;;;;;;;9.38;2.55;;;;;;;;;;5053141;28;20035;-78
2023/10/19 09:51:24;;;;;;;9.07;2.30;;;;;;;;;;5036533;28;20551;-80
2023/10/19 09:53:59;;;;;;;10.45;2.67;;;;;;;;;;5052198;28;20035;-79
2023/10/19 09:56:31;;;;;;;10.35;2.10;;;;;;;;;;5031409;28;20185;-79
2023/10/19 09:59:06;;;;;;;9.43;2.30;;;;;;;;;;5036076;28;20161;-79
2023/10/19 10:02:12;;;;;;;7.72;2.60;;;;;;;;;;5036061;28;20063;-78
2023/10/19 10:04:40;;;;;;;10.90;2.15;;;;;;;;;;5032097;28;20025;-77
2023/10/19 10:07:09;;;;;;;5.90;1.58;;;;;;;;;;5034359;28;23128;-77
2023/10/19 10:09:39;;;;;;;11.10;2.53;;;;;;;;;;5047341;28;20503;-77
2023/10/19 10:12:19;;;;;;;9.38;1.90;;;;;;;;;;5047791;28;20595;-77
2023/10/19 10:15:01;;;;;;;12.23;1.95;;;;;;;;;;5037270;28;20032;-79
2023/10/19 10:17:27;;;;;;;9.68;1.80;;;;;;;;;;5036309;28;20060;-78
2023/10/19 10:20:18;;;;;;;10.02;2.65;;;;;;;;;;5054820;28;20086;-80
2023/10/19 10:22:44;;;;;;;10.95;1.98;;;;;;;;;;5035301;28;20039;-78
2023/10/19 10:25:27;;;;;;;9.50;2.42;;;;;;;;;;5053586;28;22310;-78
2023/10/19 10:27:54;;;;;;;10.90;2.53;;;;;;;;;;5029922;28;20024;-80
2023/10/19 10:30:19;;;;;;;7.93;2.53;;;;;;;;;;5039957;28;20033;-78
2023/10/19 10:32:54;;;;;;;9.85;2.47;;;;;;;;;;5035474;28;20037;-81
2023/10/19 10:35:41;;;;;;;9.43;2.30;;;;;;;;;;5030598;28;20129;-79
2023/10/19 10:38:13;;;;;;;11.43;2.60;;;;;;;;;;5046049;28;21039;-78
2023/10/19 10:40:49;;;;;;;10.13;2.55;;;;;;;;;;5033132;28;20714;-79
2023/10/19 10:43:16;;;;;;;8.88;2.72;;;;;;;;;;5033576;28;20028;-85
2023/10/19 10:45:41;;;;;;;12.57;2.72;;;;;;;;;;5060842;28;20392;-85
2023/10/19 10:48:14;;;;;;;11.20;3.00;;;;;;;;;;5041327;28;20032;-85
2023/10/19 10:50:41;;;;;;;7.38;2.63;;;;;;;;;;5055123;28;20029;-85
2023/10/19 10:53:08;;;;;;;8.60;2.83;;;;;;;;;;5038389;28;20116;-84
2023/10/19 10:55:33;;;;;;;9.18;2.70;;;;;;;;;;5036248;28;20032;-85
2023/10/19 10:57:59;;;;;;;9.68;3.20;;;;;;;;;;5054210;28;20464;-85
2023/10/19 11:00:26;;;;;;;12.85;3.03;;;;;;;;;;5042709;28;20062;-85
2023/10/19 11:03:09;;;;;;;9.98;2.42;;;;;;;;;;5039639;28;20025;-82
2023/10/19 11:05:35;;;;;;;;;;;;;;;;;;5056773;28;20028;-85
2023/10/19 11:08:13;;;;;;;9.52;2.67;;;;;;;;;;5032607;28;19951;-80
2023/10/19 11:10:39;;;;;;;9.73;2.60;;;;;;;;;;5052359;28;20053;-82
2023/10/19 11:13:06;;;;;;;8.48;2.40;;;;;;;;;;5036950;28;20045;-82
2023/10/19 11:15:32;;;;;;;7.72;2.30;;;;;;;;;;5036517;28;20731;-80
2023/10/19 11:17:58;;;;;;;7.32;2.38;;;;;;;;;;5038716;28;20037;-81
2023/10/19 11:20:25;;;;;;;12.35;2.40;;;;;;;;;;5054768;28;20024;-81
2023/10/19 11:23:00;;;;;;;10.10;2.58;;;;;;;;;;5033841;28;20666;-82
2023/10/19 11:25:30;;;;;;;11.15;2.83;;;;;;;;;;5037827;28;20521;-81
2023/10/19 11:28:00;;;;;;;11.40;2.70;;;;;;;;;;5042876;28;20392;-82
2023/10/19 11:30:31;;;;;;;8.38;2.25;;;;;;;;;;5058850;28;20028;-81
2023/10/19 11:32:57;;;;;;;9.98;2.10;;;;;;;;;;5056415;28;20028;-81
2023/10/19 11:35:29;;;;;;;8.98;2.10;;;;;;;;;;5060331;28;21004;-81
2023/10/19 11:37:57;;;;;;;7.80;2.03;;;;;;;;;;5059815;28;20055;-80
2023/10/19 11:40:24;;;;;;;10.70;2.50;;;;;;;;;;5039400;28;20751;-81
2023/10/19 11:42:50;;;;;;;13.55;2.75;;;;;;;;;;5062703;28;20735;-82
2023/10/19 11:45:17;;;;;;;8.27;2.63;;;;;;;;;;5058191;28;20046;-82
2023/10/19 11:47:46;;;;;;;7.82;2.65;;;;;;;;;;5047853;28;20135;-81
2023/10/19 11:50:14;;;;;;;9.60;2.78;;;;;;;;;;5052352;28;20025;-81
2023/10/19 11:52:40;;;;;;;10.88;2.38;;;;;;;;;;5044358;28;20545;-81
2023/10/19 11:55:05;;;;;;;9.95;2.67;;;;;;;;;;5050305;28;20037;-82
2023/10/19 11:57:32;;;;;;;6.93;2.15;;;;;;;;;;5037046;28;20024;-82
2023/10/19 11:59:59;;;;;;;7.50;2.58;;;;;;;;;;5055440;28;20070;-82
2023/10/19 12:02:24;;;;;;;11.18;3.08;;;;;;;;;;5040369;28;20059;-80
2023/10/19 12:04:50;;;;;;;9.77;2.90;;;;;;;;;;5047363;28;20024;-79
2023/10/19 12:07:15;;;;;;;9.77;2.63;;;;;;;;;;5044987;28;20088;-78
2023/10/19 12:09:41;;;;;;;8.18;2.53;;;;;;;;;;5061907;28;20032;-79
2023/10/19 12:12:07;;;;;;;10.82;2.78;;;;;;;;;;5062433;28;20039;-84
2023/10/19 12:14:34;;;;;;;10.02;2.20;;;;;;;;;;5058136;28;20874;-81
2023/10/19 12:17:01;;;;;;;10.50;2.67;;;;;;;;;;5055702;28;20338;-85
2023/10/19 12:19:29;;;;;;;9.82;2.65;;;;;;;;;;5038073;28;20387;-86
2023/10/19 12:21:56;;;;;;;9.65;2.30;;;;;;;;;;5042981;28;20434;-83
2023/10/19 12:24:23;;;;;;;7.07;2.20;;;;;;;;;;5040529;28;20396;-86
2023/10/19 12:26:48;;;;;;;10.65;2.63;;;;;;;;;;5042935;28;20021;-84
2023/10/19 12:29:17;;;;;;;9.13;2.58;;;;;;;;;;5045919;28;20530;-84
2023/10/19 12:31:42;;;;;;;14.55;8.25;;;;;;;;;;5041340;28;20021;-84
2023/10/19 12:34:07;;;;;;;15.90;6.43;;;;;;;;;;5039337;28;20036;-85
2023/10/19 12:36:36;;;;;;;19.42;7.88;;;;;;;;;;5058815;28;20036;-85
2023/10/19 12:39:04;;;;;;;15.07;6.32;;;;;;;;;;5060476;28;20085;-82
2023/10/19 12:41:31;;;;;;;15.57;8.65;;;;;;;;;;5052848;28;20154;-83
2023/10/19 12:43:57;;;;;;;16.60;10.10;;;;;;;;;;5058668;28;20025;-83
2023/10/19 12:46:30;;;;;;;21.10;8.63;;;;;;;;;;5040956;28;20066;-84
2023/10/19 12:48:56;;;;;;;18.35;6.60;;;;;;;;;;5039213;28;20029;-85
2023/10/19 12:51:25;;;;;;;14.52;5.57;;;;;;;;;;5035718;28;20023;-85
2023/10/19 12:53:52;;;;;;;12.90;4.30;;;;;;;;;;5039724;28;20106;-84
2023/10/19 12:56:18;;;;;;;14.20;3.70;;;;;;;;;;5040549;28;20071;-82
2023/10/19 12:58:44;;;;;;;11.55;3.13;;;;;;;;;;5034029;28;20074;-83
2023/10/19 13:01:17;;;;;;;13.55;3.25;;;;;;;;;;5050835;28;20033;-85
2023/10/19 13:03:45;;;;;;;;;;;;;;;;;;5038507;28;20384;-82
2023/10/19 13:06:11;;;;;;;7.70;2.10;;;;;;;;;;5039408;28;19916;-85
2023/10/19 13:08:40;;;;;;;10.52;2.33;;;;;;;;;;5047382;28;20067;-85
2023/10/19 13:11:05;;;;;;;8.63;1.80;;;;;;;;;;5021559;28;20071;-81
2023/10/19 13:13:31;;;;;;;9.63;2.15;;;;;;;;;;5053830;28;20521;-84
2023/10/19 13:15:57;;;;;;;11.32;2.40;;;;;;;;;;5038675;28;20060;-86
2023/10/19 13:18:27;;;;;;;8.60;1.92;;;;;;;;;;5037009;28;20136;-84
2023/10/19 13:20:54;;;;;;;7.20;2.10;;;;;;;;;;5054938;28;20036;-84
2023/10/19 13:23:22;;;;;;;7.35;1.90;;;;;;;;;;5055293;28;20031;-79
2023/10/19 13:26:08;;;;;;;10.88;2.38;;;;;;;;;;5052978;28;20028;-79
2023/10/19 13:28:37;;;;;;;7.85;2.25;;;;;;;;;;5038829;28;20030;-79
2023/10/19 13:31:03;;;;;;;11.05;2.55;;;;;;;;;;5036378;28;20052;-81
2023/10/19 13:33:29;;;;;;;9.65;2.78;;;;;;;;;;5043917;28;20075;-81
2023/10/19 13:35:54;;;;;;;10.00;2.60;;;;;;;;;;5040761;28;20136;-81
2023/10/19 13:38:19;;;;;;;8.95;2.00;;;;;;;;;;5034587;28;20041;-81
2023/10/19 13:40:45;;;;;;;10.20;2.53;;;;;;;;;;5037148;28;20024;-81
2023/10/19 13:43:14;;;;;;;10.32;2.55;;;;;;;;;;5062103;28;20060;-81
2023/10/19 13:45:42;;;;;;;9.25;2.45;;;;;;;;;;5040742;28;20033;-81
2023/10/19 13:48:09;;;;;;;7.32;2.30;;;;;;;;;;5033763;28;20028;-81
2023/10/19 13:50:35;;;;;;;10.80;2.42;;;;;;;;;;5037703;28;20050;-81
2023/10/19 13:53:02;;;;;;;7.25;2.42;;;;;;;;;;5060381;28;20036;-80
2023/10/19 13:55:28;;;;;;;12.90;3.20;;;;;;;;;;5036372;28;20052;-81
2023/10/19 13:57:55;;;;;;;7.63;2.53;;;;;;;;;;5054315;28;20111;-81
2023/10/19 14:00:30;;;;;;;8.95;2.85;;;;;;;;;;5035852;28;20123;-80
2023/10/19 14:02:57;;;;;;;11.10;2.70;;;;;;;;;;5051699;28;20480;-82
2023/10/19 14:05:26;;;;;;;8.13;2.28;;;;;;;;;;5052261;28;20028;-81
2023/10/19 14:07:52;;;;;;;12.45;2.70;;;;;;;;;;5054862;28;20377;-81
2023/10/19 14:10:19;;;;;;;8.60;2.50;;;;;;;;;;5028934;28;20031;-81
2023/10/19 14:12:45;;;;;;;9.40;2.40;;;;;;;;;;5056451;28;20044;-82
2023/10/19 14:15:15;;;;;;;12.82;2.60;;;;;;;;;;5055347;28;20057;-82
2023/10/19 14:17:42;;;;;;;10.45;2.60;;;;;;;;;;5032841;28;20075;-82
2023/10/19 14:20:17;;;;;;;13.23;3.47;;;;;;;;;;5051512;28;20036;-81
2023/10/19 14:22:43;;;;;;;13.05;3.13;;;;;;;;;;5056560;28;20115;-81
2023/10/19 14:25:12;;;;;;;12.75;3.47;;;;;;;;;;5055995;28;20033;-82
2023/10/19 14:27:42;;;;;;;10.52;3.17;;;;;;;;;;5057674;28;20048;-81
2023/10/19 14:30:11;;;;;;;9.65;3.47;;;;;;;;;;5052611;28;20029;-81
2023/10/19 14:32:37;;;;;;;10.27;3.65;;;;;;;;;;5035956;28;20028;-77
2023/10/19 14:35:05;;;;;;;8.15;3.03;;;;;;;;;;5037563;28;20067;-78
2023/10/19 14:37:31;;;;;;;8.68;3.55;;;;;;;;;;5032065;28;20410;-79
2023/10/19 14:39:58;;;;;;;10.93;3.47;;;;;;;;;;5049426;28;20029;-78
2023/10/19 14:42:25;;;;;;;12.60;4.07;;;;;;;;;;5041393;28;20085;-78
2023/10/19 14:44:50;;;;;;;10.80;4.00;;;;;;;;;;5051690;28;20039;-79
2023/10/19 14:47:16;;;;;;;15.77;4.60;;;;;;;;;;5053177;28;20028;-79
2023/10/19 14:49:41;;;;;;;9.52;3.53;;;;;;;;;;5049041;28;20100;-79
2023/10/19 14:52:06;;;;;;;9.23;3.28;;;;;;;;;;5032976;28;20108;-79
2023/10/19 14:54:32;;;;;;;11.55;3.38;;;;;;;;;;5034521;28;20046;-79
2023/10/19 14:56:57;;;;;;;10.15;3.85;;;;;;;;;;5036818;28;20028;-79
2023/10/19 14:59:22;;;;;;;8.80;3.38;;;;;;;;;;5047951;28;20032;-80